createdAt,value
2022-08-23T00:01:01.845Z,71.69
2022-08-23T00:02:09.118Z,76.69
2022-08-23T00:03:14.062Z,72.87
2022-08-23T00:04:22.703Z,73.56
2022-08-23T00:05:27.254Z,71.31
2022-08-23T00:06:32.844Z,76.44
2022-08-23T00:07:39.085Z,80.81
2022-08-23T00:08:47.424Z,71.12
2022-08-23T00:09:49.247Z,75.81
2022-08-23T00:10:53.270Z,77.94
2022-08-23T00:12:15.113Z,77.56
2022-08-23T00:13:19.155Z,81.75
2022-08-23T00:14:26.128Z,86.12
2022-08-23T00:15:30.172Z,82.50
2022-08-23T00:16:35.871Z,79.12
2022-08-23T00:17:39.916Z,84.69
2022-08-23T00:18:49.420Z,86.63
2022-08-23T00:19:49.599Z,83.00
2022-08-23T00:20:53.841Z,74.06
2022-08-23T00:21:57.915Z,79.75
2022-08-23T00:23:02.041Z,81.81
2022-08-23T00:24:08.145Z,86.69
2022-08-23T00:25:14.067Z,79.62
2022-08-23T00:26:20.955Z,81.12
2022-08-23T00:27:25.063Z,82.94
2022-08-23T00:28:29.458Z,86.31
2022-08-23T00:29:36.466Z,80.81
2022-08-23T00:30:43.112Z,73.31
2022-08-23T00:31:47.742Z,80.31
2022-08-23T00:32:51.795Z,82.75
2022-08-23T00:33:57.461Z,81.19
2022-08-23T00:35:02.128Z,78.87
2022-08-23T00:36:06.246Z,79.87
2022-08-23T00:37:12.253Z,77.00
2022-08-23T00:38:33.750Z,67.31
2022-08-23T00:39:22.150Z,80.94
2022-08-23T00:40:26.337Z,77.69
2022-08-23T00:41:31.386Z,77.81
2022-08-23T00:42:57.502Z,77.12
2022-08-23T00:44:02.619Z,76.19
2022-08-23T00:45:07.023Z,77.81
2022-08-23T00:46:34.678Z,79.81
2022-08-23T00:47:38.822Z,82.00
2022-08-23T00:48:43.012Z,87.19
2022-08-23T00:49:49.996Z,77.44
2022-08-23T00:51:02.559Z,80.44
2022-08-23T00:52:15.382Z,76.75
2022-08-23T00:53:28.207Z,85.38
2022-08-23T00:54:33.313Z,82.37
2022-08-23T00:55:39.384Z,76.25
2022-08-23T00:56:43.615Z,83.94
2022-08-23T00:57:47.735Z,79.50
2022-08-23T00:58:52.245Z,78.44
2022-08-23T00:59:56.233Z,84.13
2022-08-23T01:01:02.983Z,104.12
2022-08-23T01:02:07.953Z,84.06
2022-08-23T01:03:13.986Z,83.62
2022-08-23T01:04:20.683Z,79.56
2022-08-23T01:05:27.658Z,86.31
2022-08-23T01:06:56.477Z,83.56
2022-08-23T01:08:01.326Z,82.94
2022-08-23T01:09:08.539Z,87.31
2022-08-23T01:10:20.154Z,87.31
2022-08-23T01:11:24.426Z,76.75
2022-08-23T01:12:34.118Z,79.87
2022-08-23T01:13:44.047Z,76.69
2022-08-23T01:15:03.031Z,83.87
2022-08-23T01:16:16.282Z,82.37
2022-08-23T01:17:23.287Z,85.44
2022-08-23T01:18:30.147Z,77.50
2022-08-23T01:19:45.770Z,80.56
2022-08-23T01:21:12.923Z,78.12
2022-08-23T01:22:22.854Z,81.00
2022-08-23T01:23:41.730Z,75.69
2022-08-23T01:25:06.018Z,73.81
2022-08-23T01:25:56.018Z,77.87
2022-08-23T01:27:00.276Z,80.81
2022-08-23T01:28:04.778Z,79.44
2022-08-23T01:29:08.878Z,101.75
2022-08-23T01:30:16.627Z,84.00
2022-08-23T01:31:24.424Z,83.44
2022-08-23T01:32:28.458Z,78.37
2022-08-23T01:33:32.954Z,84.06
2022-08-23T01:34:37.106Z,82.37
2022-08-23T01:35:45.715Z,78.81
2022-08-23T01:36:49.950Z,83.62
2022-08-23T01:37:54.179Z,86.19
2022-08-23T01:38:58.360Z,85.25
2022-08-23T01:40:02.424Z,80.94
2022-08-23T01:41:06.581Z,95.44
2022-08-23T01:42:10.554Z,92.25
2022-08-23T01:43:17.200Z,91.06
2022-08-23T01:44:21.204Z,96.56
2022-08-23T01:45:26.873Z,86.87
2022-08-23T01:46:31.010Z,86.50
2022-08-23T01:47:35.080Z,92.62
2022-08-23T01:48:39.498Z,84.19
2022-08-23T01:49:43.546Z,86.06
2022-08-23T01:50:48.354Z,84.19
2022-08-23T01:51:52.462Z,81.50
2022-08-23T01:52:56.767Z,87.50
2022-08-23T01:54:00.810Z,109.06
2022-08-23T01:55:06.526Z,84.25
2022-08-23T01:56:14.310Z,90.25
2022-08-23T01:57:18.363Z,86.75
2022-08-23T01:58:22.669Z,94.75
2022-08-23T01:59:27.058Z,96.00
2022-08-23T02:00:34.225Z,87.19
2022-08-23T02:01:38.766Z,99.37
2022-08-23T02:02:42.923Z,95.44
2022-08-23T02:03:48.483Z,102.81
2022-08-23T02:04:54.227Z,101.62
2022-08-23T02:05:58.945Z,98.37
2022-08-23T02:07:03.070Z,96.31
2022-08-23T02:08:08.430Z,110.31
2022-08-23T02:09:17.147Z,120.69
2022-08-23T02:10:19.491Z,104.81
2022-08-23T02:11:25.708Z,107.93
2022-08-23T02:12:29.836Z,110.37
2022-08-23T02:13:33.733Z,100.00
2022-08-23T02:14:37.721Z,93.31
2022-08-23T02:15:46.225Z,90.94
2022-08-23T02:17:02.967Z,95.38
2022-08-23T02:18:00.078Z,120.31
2022-08-23T02:19:07.067Z,100.81
2022-08-23T02:20:12.703Z,95.31
2022-08-23T02:21:16.904Z,120.00
2022-08-23T02:22:21.027Z,91.93
2022-08-23T02:23:25.243Z,113.50
2022-08-23T02:24:29.273Z,117.31
2022-08-23T02:25:33.478Z,115.37
2022-08-23T02:26:39.978Z,113.00
2022-08-23T02:27:45.780Z,121.31
2022-08-23T02:28:52.531Z,86.00
2022-08-23T02:29:58.290Z,113.56
2022-08-23T02:31:03.432Z,112.12
2022-08-23T02:32:10.431Z,116.94
2022-08-23T02:33:18.367Z,117.31
2022-08-23T02:34:22.814Z,112.00
2022-08-23T02:35:28.641Z,111.62
2022-08-23T02:36:34.258Z,115.25
2022-08-23T02:37:38.697Z,117.44
2022-08-23T02:38:42.661Z,121.13
2022-08-23T02:39:46.698Z,111.00
2022-08-23T02:40:52.990Z,111.81
2022-08-23T02:41:57.163Z,116.19
2022-08-23T02:43:01.221Z,93.27
2022-08-23T02:44:05.830Z,100.12
2022-08-23T02:45:10.279Z,120.31
2022-08-23T02:46:15.872Z,124.06
2022-08-23T02:47:20.008Z,115.00
2022-08-23T02:48:24.059Z,122.62
2022-08-23T02:49:29.501Z,111.50
2022-08-23T02:50:34.170Z,103.69
2022-08-23T02:51:40.439Z,116.56
2022-08-23T02:52:44.580Z,119.44
2022-08-23T02:53:48.614Z,120.94
2022-08-23T02:54:53.283Z,120.00
2022-08-23T02:55:58.579Z,120.13
2022-08-23T02:57:03.108Z,90.73
2022-08-23T02:58:07.220Z,94.13
2022-08-23T02:59:11.266Z,110.81
2022-08-23T03:00:17.122Z,120.87
2022-08-23T03:01:24.366Z,106.44
2022-08-23T03:02:28.497Z,120.81
2022-08-23T03:03:32.769Z,117.94
2022-08-23T03:04:38.599Z,101.94
2022-08-23T03:05:43.047Z,110.88
2022-08-23T03:06:47.303Z,117.19
2022-08-23T03:07:51.378Z,96.50
2022-08-23T03:08:56.704Z,99.69
2022-08-23T03:10:02.170Z,108.94
2022-08-23T03:11:11.860Z,99.87
2022-08-23T03:12:17.232Z,82.31
2022-08-23T03:13:21.653Z,100.27
2022-08-23T03:14:25.972Z,97.20
2022-08-23T03:15:30.100Z,102.27
2022-08-23T03:16:36.649Z,107.87
2022-08-23T03:17:40.481Z,93.31
2022-08-23T03:18:44.693Z,100.47
2022-08-23T03:19:48.825Z,93.50
2022-08-23T03:20:52.857Z,124.31
2022-08-23T03:21:57.190Z,96.31
2022-08-23T03:23:01.813Z,105.87
2022-08-23T03:24:10.151Z,116.56
2022-08-23T03:25:12.650Z,112.94
2022-08-23T03:26:20.476Z,107.81
2022-08-23T03:27:24.561Z,109.19
2022-08-23T03:28:29.940Z,103.13
2022-08-23T03:29:34.528Z,94.37
2022-08-23T03:30:38.769Z,101.87
2022-08-23T03:31:43.219Z,117.19
2022-08-23T03:32:49.168Z,111.06
2022-08-23T03:33:53.163Z,114.44
2022-08-23T03:34:57.197Z,98.87
2022-08-23T03:36:03.714Z,101.25
2022-08-23T03:37:07.880Z,73.80
2022-08-23T03:38:14.490Z,110.81
2022-08-23T03:39:18.710Z,103.56
2022-08-23T03:40:30.119Z,109.94
2022-08-23T03:41:31.106Z,103.00
2022-08-23T03:42:35.261Z,117.75
2022-08-23T03:43:39.944Z,107.00
2022-08-23T03:44:44.848Z,93.75
2022-08-23T03:50:24.366Z,96.44
2022-08-23T03:51:33.453Z,103.06
2022-08-23T03:52:37.907Z,136.69
2022-08-23T03:53:42.006Z,105.00
2022-08-23T03:54:46.156Z,119.50
2022-08-23T03:55:51.064Z,112.67
2022-08-23T03:57:01.564Z,100.87
2022-08-23T03:58:06.977Z,110.37
2022-08-23T03:59:11.638Z,125.19
2022-08-23T04:00:20.294Z,114.06
2022-08-23T04:01:28.442Z,115.88
2022-08-23T04:02:38.656Z,113.37
2022-08-23T04:03:58.616Z,104.06
2022-08-23T04:05:08.961Z,104.67
2022-08-23T04:06:20.700Z,104.73
2022-08-23T04:07:26.855Z,111.06
2022-08-23T04:08:33.915Z,105.20
2022-08-23T04:09:36.640Z,103.20
2022-08-23T04:10:41.364Z,118.44
2022-08-23T04:11:45.559Z,126.87
2022-08-23T04:12:49.796Z,123.56
2022-08-23T04:13:53.901Z,133.59
2022-08-23T04:14:57.934Z,130.37
2022-08-23T04:16:04.387Z,140.76
2022-08-23T04:17:08.539Z,149.81
2022-08-23T04:18:13.854Z,139.31
2022-08-23T04:19:20.326Z,147.81
2022-08-23T04:20:26.817Z,155.87
2022-08-23T04:21:32.419Z,168.13
2022-08-23T04:22:36.557Z,128.93
2022-08-23T04:23:46.533Z,137.67
2022-08-23T04:24:52.939Z,114.69
2022-08-23T04:25:58.190Z,109.75
2022-08-23T04:27:03.076Z,95.06
2022-08-23T04:28:11.981Z,99.81
2022-08-23T04:29:33.967Z,93.75
2022-08-23T04:30:24.616Z,91.06
2022-08-23T04:31:34.480Z,119.69
2022-08-23T04:32:36.158Z,117.44
2022-08-23T04:33:44.747Z,85.44
2022-08-23T04:34:51.340Z,85.25
2022-08-23T04:35:57.295Z,64.62
2022-08-23T04:37:01.903Z,72.25
2022-08-23T04:38:24.726Z,72.06
2022-08-23T04:39:12.201Z,74.75
2022-08-23T04:40:17.073Z,102.94
2022-08-23T04:41:21.246Z,112.12
2022-08-23T04:42:27.489Z,107.06
2022-08-23T04:43:33.787Z,119.37
2022-08-23T04:44:37.833Z,118.94
2022-08-23T04:45:42.056Z,110.31
2022-08-23T04:46:46.264Z,106.50
2022-08-23T04:47:50.390Z,128.25
2022-08-23T04:48:54.546Z,113.69
2022-08-23T04:49:58.701Z,110.44
2022-08-23T04:51:03.247Z,114.69
2022-08-23T04:52:10.371Z,110.81
2022-08-23T04:53:17.543Z,116.75
2022-08-23T04:54:22.554Z,111.44
2022-08-23T04:55:28.590Z,117.75
2022-08-23T04:56:36.180Z,121.87
2022-08-23T04:57:40.596Z,92.25
2022-08-23T04:58:46.996Z,76.75
2022-08-23T04:59:51.042Z,86.87
2022-08-23T05:00:58.183Z,89.56
2022-08-23T05:02:02.219Z,71.60
2022-08-23T05:03:06.428Z,61.80
2022-08-23T05:04:10.791Z,69.69
2022-08-23T05:05:20.295Z,66.93
2022-08-23T05:06:24.734Z,50.69
2022-08-23T05:07:42.678Z,61.60
2022-08-23T05:08:37.555Z,45.69
2022-08-23T05:09:41.585Z,45.88
2022-08-23T05:10:47.132Z,42.25
2022-08-23T05:11:55.531Z,44.81
2022-08-23T05:13:03.158Z,38.94
2022-08-23T05:14:07.038Z,35.63
2022-08-23T05:15:11.801Z,49.13
2022-08-23T05:16:18.586Z,41.93
2022-08-23T05:17:22.704Z,35.56
2022-08-23T05:18:29.562Z,42.62
2022-08-23T05:19:36.555Z,31.69
2022-08-23T05:20:47.966Z,27.06
2022-08-23T05:21:57.118Z,39.06
2022-08-23T05:23:01.911Z,45.00
2022-08-23T05:24:07.591Z,49.69
2022-08-23T05:25:13.435Z,35.53
2022-08-23T05:26:18.548Z,29.69
2022-08-23T05:27:22.519Z,35.88
2022-08-23T05:28:29.590Z,20.00
2022-08-23T05:29:33.748Z,48.33
2022-08-23T05:30:37.836Z,38.13
2022-08-23T05:31:42.186Z,29.06
2022-08-23T05:32:46.310Z,24.12
2022-08-23T05:33:50.728Z,27.13
2022-08-23T05:34:54.761Z,25.56
2022-08-23T05:35:58.808Z,28.94
2022-08-23T05:37:04.697Z,20.44
2022-08-23T05:38:08.789Z,28.25
2022-08-23T05:39:12.761Z,27.00
2022-08-23T05:40:21.736Z,20.31
2022-08-23T05:41:37.933Z,17.50
2022-08-23T05:42:31.473Z,19.87
2022-08-23T05:43:35.890Z,17.50
2022-08-23T05:44:39.989Z,17.12
2022-08-23T05:45:44.023Z,18.37
2022-08-23T05:46:48.775Z,13.19
2022-08-23T05:47:55.756Z,13.13
2022-08-23T05:48:58.819Z,15.13
2022-08-23T05:50:03.019Z,15.06
2022-08-23T05:51:24.879Z,14.25
2022-08-23T05:52:28.981Z,11.56
2022-08-23T05:53:33.020Z,13.00
2022-08-23T05:54:37.749Z,10.56
2022-08-23T05:55:41.855Z,10.88
2022-08-23T05:56:45.958Z,12.63
2022-08-23T05:57:51.117Z,14.13
2022-08-23T05:59:00.014Z,12.75
2022-08-23T06:00:05.373Z,11.63
2022-08-23T06:01:10.640Z,14.44
2022-08-23T06:02:16.652Z,16.25
2022-08-23T06:03:20.424Z,13.88
2022-08-23T06:04:24.631Z,15.50
2022-08-23T06:05:28.981Z,12.00
2022-08-23T06:06:37.787Z,15.19
2022-08-23T06:07:42.075Z,12.13
2022-08-23T06:08:47.381Z,16.44
2022-08-23T06:09:51.351Z,11.56
2022-08-23T06:11:12.996Z,11.69
2022-08-23T06:12:17.132Z,14.38
2022-08-23T06:13:21.290Z,12.69
2022-08-23T06:14:26.983Z,10.13
2022-08-23T06:15:31.787Z,12.88
2022-08-23T06:16:38.790Z,11.44
2022-08-23T06:17:42.944Z,14.44
2022-08-23T06:18:48.865Z,14.44
2022-08-23T06:19:54.317Z,12.88
2022-08-23T06:21:03.661Z,13.31
2022-08-23T06:22:07.727Z,12.44
2022-08-23T06:23:12.087Z,13.88
2022-08-23T06:24:16.137Z,12.75
2022-08-23T06:25:20.129Z,15.88
2022-08-23T06:26:30.460Z,13.25
2022-08-23T06:27:34.419Z,13.94
2022-08-23T06:28:44.125Z,11.81
2022-08-23T06:29:44.793Z,11.63
2022-08-23T06:30:48.896Z,15.69
2022-08-23T06:31:54.723Z,15.50
2022-08-23T06:32:58.725Z,11.31
2022-08-23T06:34:02.874Z,11.00
2022-08-23T06:35:33.164Z,18.50
2022-08-23T06:36:17.238Z,11.75
2022-08-23T06:37:22.280Z,14.56
2022-08-23T06:38:27.999Z,13.38
2022-08-23T06:39:37.197Z,14.38
2022-08-23T06:40:39.185Z,15.69
2022-08-23T06:41:46.562Z,21.12
2022-08-23T06:42:52.127Z,15.31
2022-08-23T06:43:57.862Z,15.44
2022-08-23T06:45:01.969Z,12.31
2022-08-23T06:46:12.869Z,12.88
2022-08-23T06:47:16.987Z,12.31
2022-08-23T06:48:22.750Z,17.37
2022-08-23T06:49:26.945Z,10.75
2022-08-23T06:50:32.832Z,10.63
2022-08-23T06:51:41.430Z,15.88
2022-08-23T06:52:48.565Z,10.94
2022-08-23T06:53:57.829Z,14.75
2022-08-23T06:55:13.821Z,13.31
2022-08-23T06:56:25.580Z,14.50
2022-08-23T06:57:31.357Z,14.31
2022-08-23T06:58:55.420Z,14.19
2022-08-23T07:00:43.076Z,11.81
2022-08-23T07:01:45.229Z,15.00
2022-08-23T07:02:36.959Z,19.50
2022-08-23T07:03:41.040Z,20.19
2022-08-23T07:04:45.154Z,16.62
2022-08-23T07:05:51.197Z,17.44
2022-08-23T07:06:55.628Z,16.75
2022-08-23T07:08:03.119Z,14.00
2022-08-23T07:09:07.353Z,14.19
2022-08-23T07:10:12.109Z,14.63
2022-08-23T07:11:16.073Z,14.94
2022-08-23T07:12:20.183Z,19.06
2022-08-23T07:13:24.382Z,14.25
2022-08-23T07:14:29.294Z,13.94
2022-08-23T07:15:33.341Z,14.25
2022-08-23T07:16:40.881Z,14.87
2022-08-23T07:17:44.981Z,14.06
2022-08-23T07:18:49.300Z,13.44
2022-08-23T07:19:54.815Z,14.38
2022-08-23T07:21:01.716Z,13.62
2022-08-23T07:22:07.951Z,15.88
2022-08-23T07:23:12.102Z,17.00
2022-08-23T07:24:18.339Z,11.31
2022-08-23T07:25:22.458Z,16.06
2022-08-23T07:26:30.349Z,14.31
2022-08-23T07:27:37.120Z,13.50
2022-08-23T07:28:44.021Z,12.56
2022-08-23T07:29:47.983Z,18.25
2022-08-23T07:30:53.520Z,16.87
2022-08-23T07:31:58.233Z,14.38
2022-08-23T07:33:03.748Z,16.62
2022-08-23T07:34:10.184Z,17.31
2022-08-23T07:35:14.292Z,14.13
2022-08-23T07:36:21.100Z,19.69
2022-08-23T07:37:25.176Z,17.94
2022-08-23T07:38:30.590Z,19.31
2022-08-23T07:39:34.938Z,11.38
2022-08-23T07:40:40.775Z,16.37
2022-08-23T07:41:45.787Z,16.19
2022-08-23T07:42:50.677Z,21.19
2022-08-23T07:43:54.648Z,18.25
2022-08-23T07:45:00.154Z,15.63
2022-08-23T07:46:04.463Z,15.88
2022-08-23T07:47:08.507Z,15.56
2022-08-23T07:48:14.252Z,15.75
2022-08-23T07:49:18.368Z,13.06
2022-08-23T07:50:23.682Z,13.44
2022-08-23T07:51:30.572Z,10.38
2022-08-23T07:52:34.794Z,16.81
2022-08-23T07:53:43.020Z,8.94
2022-08-23T07:54:48.457Z,15.69
2022-08-23T07:55:53.057Z,12.88
2022-08-23T07:57:02.023Z,13.75
2022-08-23T07:58:05.989Z,17.69
2022-08-23T07:59:10.441Z,15.38
2022-08-23T08:00:18.860Z,15.13
2022-08-23T08:01:26.178Z,16.69
2022-08-23T08:02:30.515Z,12.31
2022-08-23T08:03:38.365Z,12.81
2022-08-23T08:04:42.364Z,13.13
2022-08-23T08:05:46.982Z,16.12
2022-08-23T08:07:10.435Z,15.94
2022-08-23T08:07:57.285Z,14.50
2022-08-23T08:09:01.977Z,18.25
2022-08-23T08:10:06.650Z,14.75
2022-08-23T08:11:12.478Z,15.50
2022-08-23T08:12:17.645Z,9.69
2022-08-23T08:13:22.042Z,1.37
2022-08-23T08:14:26.066Z,13.06
2022-08-23T08:15:30.092Z,16.25
2022-08-23T08:16:40.322Z,15.38
2022-08-23T08:17:45.842Z,14.06
2022-08-23T08:18:50.321Z,19.06
2022-08-23T08:19:54.360Z,13.38
2022-08-23T08:20:58.516Z,15.50
2022-08-23T08:22:02.577Z,14.19
2022-08-23T08:23:06.587Z,17.75
2022-08-23T08:24:12.486Z,14.25
2022-08-23T08:25:16.907Z,13.38
2022-08-23T08:26:22.488Z,15.00
2022-08-23T08:27:26.526Z,12.13
2022-08-23T08:28:30.566Z,10.13
2022-08-23T08:29:34.616Z,12.88
2022-08-23T08:30:38.981Z,13.62
2022-08-23T08:31:45.210Z,13.31
2022-08-23T08:32:49.318Z,15.25
2022-08-23T08:33:53.457Z,15.19
2022-08-23T08:34:57.623Z,36.81
2022-08-23T08:36:03.266Z,16.75
2022-08-23T08:37:07.998Z,11.94
2022-08-23T08:38:13.329Z,14.19
2022-08-23T08:39:23.195Z,8.63
2022-08-23T08:40:33.460Z,14.19
2022-08-23T08:42:03.900Z,13.31
2022-08-23T08:43:16.437Z,11.56
2022-08-23T08:44:35.422Z,7.94
2022-08-23T08:46:09.222Z,10.31
2022-08-23T08:47:16.230Z,10.38
2022-08-23T08:48:23.216Z,14.19
2022-08-23T08:49:39.221Z,11.81
2022-08-23T08:50:51.967Z,7.56
2022-08-23T08:52:00.527Z,12.88
2022-08-23T08:53:22.083Z,7.75
2022-08-23T08:54:29.938Z,10.00
2022-08-23T08:55:36.915Z,6.94
2022-08-23T08:56:41.523Z,5.56
2022-08-23T08:57:48.549Z,10.00
2022-08-23T08:59:02.764Z,7.56
2022-08-23T09:00:13.008Z,11.25
2022-08-23T09:01:18.974Z,5.69
2022-08-23T09:02:42.760Z,12.13
2022-08-23T09:03:35.729Z,6.87
2022-08-23T09:04:39.874Z,8.94
2022-08-23T09:05:51.771Z,6.69
2022-08-23T09:06:58.992Z,9.00
2022-08-23T09:08:34.270Z,8.00
2022-08-23T09:10:03.747Z,8.13
2022-08-23T09:11:27.345Z,8.81
2022-08-23T09:12:34.414Z,6.94
2022-08-23T09:14:08.183Z,8.00
2022-08-23T09:15:27.862Z,11.38
2022-08-23T09:16:53.273Z,8.00
2022-08-23T09:18:00.485Z,8.00
2022-08-23T09:19:07.539Z,8.31
2022-08-23T09:20:16.226Z,8.50
2022-08-23T09:21:22.909Z,9.50
2022-08-23T09:22:32.435Z,8.50
2022-08-23T09:23:39.423Z,7.75
2022-08-23T09:24:45.746Z,8.19
2022-08-23T09:25:57.095Z,8.75
2022-08-23T09:27:02.634Z,11.75
2022-08-23T09:28:07.151Z,7.19
2022-08-23T09:29:26.563Z,7.81
2022-08-23T09:30:48.982Z,6.62
2022-08-23T09:31:58.265Z,7.62
2022-08-23T09:33:07.087Z,8.31
2022-08-23T09:34:15.457Z,9.94
2022-08-23T09:35:26.308Z,8.19
2022-08-23T09:36:37.463Z,7.12
2022-08-23T09:37:53.462Z,4.75
2022-08-23T09:39:00.806Z,3.87
2022-08-23T09:40:19.641Z,9.88
2022-08-23T09:41:28.380Z,6.81
2022-08-23T09:42:37.876Z,9.94
2022-08-23T09:43:46.680Z,11.25
2022-08-23T09:44:50.856Z,7.19
2022-08-23T09:45:57.882Z,6.31
2022-08-23T09:47:10.763Z,8.13
2022-08-23T09:48:17.260Z,9.38
2022-08-23T09:49:29.734Z,8.38
2022-08-23T09:50:42.760Z,9.69
2022-08-23T09:51:48.180Z,7.56
2022-08-23T09:53:04.219Z,5.81
2022-08-23T09:54:15.929Z,9.44
2022-08-23T09:55:39.129Z,7.81
2022-08-23T09:56:46.238Z,8.56
2022-08-23T09:57:52.517Z,7.69
2022-08-23T09:58:56.637Z,5.00
2022-08-23T10:00:18.688Z,9.13
2022-08-23T10:01:28.613Z,7.94
2022-08-23T10:02:35.288Z,9.56
2022-08-23T10:03:40.383Z,5.69
2022-08-23T10:04:47.481Z,7.94
2022-08-23T10:05:56.368Z,8.88
2022-08-23T10:07:48.643Z,5.87
2022-08-23T10:08:10.262Z,4.31
2022-08-23T10:09:33.591Z,8.38
2022-08-23T10:10:43.675Z,5.37
2022-08-23T10:11:50.866Z,8.00
2022-08-23T10:12:56.253Z,5.00
2022-08-23T10:14:00.460Z,5.00
2022-08-23T10:15:06.325Z,5.31
2022-08-23T10:16:32.452Z,6.31
2022-08-23T10:17:45.225Z,3.81
2022-08-23T10:19:11.192Z,6.62
2022-08-23T10:20:38.719Z,6.19
2022-08-23T10:22:17.586Z,6.87
2022-08-23T10:23:39.636Z,7.37
2022-08-23T10:24:49.969Z,6.12
2022-08-23T10:25:57.067Z,4.50
2022-08-23T10:27:12.848Z,5.50
2022-08-23T10:28:31.506Z,5.25
2022-08-23T10:29:43.013Z,4.37
2022-08-23T10:31:02.068Z,4.37
2022-08-23T10:32:14.621Z,4.69
2022-08-23T10:33:25.893Z,4.94
2022-08-23T10:34:50.708Z,4.56
2022-08-23T10:36:17.783Z,6.69
2022-08-23T10:37:35.322Z,4.31
2022-08-23T10:38:57.485Z,3.94
2022-08-23T10:40:26.997Z,4.69
2022-08-23T10:41:40.073Z,4.31
2022-08-23T10:42:50.006Z,2.31
2022-08-23T10:44:11.683Z,8.31
2022-08-23T10:45:27.366Z,4.94
2022-08-23T10:46:34.730Z,4.12
2022-08-23T10:47:41.528Z,3.62
2022-08-23T10:48:48.498Z,3.62
2022-08-23T10:49:54.626Z,4.62
2022-08-23T10:51:01.756Z,5.31
2022-08-23T10:52:10.378Z,4.81
2022-08-23T10:53:19.387Z,2.31
2022-08-23T10:54:26.503Z,6.00
2022-08-23T10:55:34.645Z,3.37
2022-08-23T10:56:48.493Z,7.06
2022-08-23T10:57:48.410Z,4.37
2022-08-23T10:59:16.126Z,5.44
2022-08-23T11:00:23.404Z,4.25
2022-08-23T11:01:42.047Z,4.75
2022-08-23T11:02:49.166Z,2.94
2022-08-23T11:04:05.160Z,3.81
2022-08-23T11:05:20.972Z,6.31
2022-08-23T11:06:28.328Z,6.12
2022-08-23T11:07:40.751Z,6.50
2022-08-23T11:08:48.144Z,4.37
2022-08-23T11:09:55.182Z,3.06
2022-08-23T11:10:59.512Z,4.12
2022-08-23T11:12:26.179Z,6.81
2022-08-23T11:13:32.309Z,4.50
2022-08-23T11:14:44.804Z,7.37
2022-08-23T11:16:03.887Z,4.37
2022-08-23T11:17:13.596Z,4.06
2022-08-23T11:18:41.320Z,4.94
2022-08-23T11:19:51.235Z,5.19
2022-08-23T11:20:58.483Z,3.00
2022-08-23T11:22:14.339Z,3.56
2022-08-23T11:23:32.806Z,5.44
2022-08-23T11:24:39.792Z,4.69
2022-08-23T11:25:45.318Z,2.69
2022-08-23T11:26:52.386Z,7.12
2022-08-23T11:28:32.789Z,3.69
2022-08-23T11:29:39.421Z,4.56
2022-08-23T11:30:48.512Z,6.44
2022-08-23T11:32:04.077Z,5.19
2022-08-23T11:33:25.202Z,4.12
2022-08-23T11:34:33.704Z,6.25
2022-08-23T11:35:46.530Z,2.19
2022-08-23T11:37:21.975Z,3.94
2022-08-23T11:38:45.231Z,4.56
2022-08-23T11:40:02.661Z,5.87
2022-08-23T11:41:15.291Z,4.00
2022-08-23T11:42:20.312Z,5.06
2022-08-23T11:43:27.283Z,6.12
2022-08-23T11:44:38.522Z,5.56
2022-08-23T11:45:47.508Z,7.62
2022-08-23T11:46:56.518Z,4.94
2022-08-23T11:48:21.455Z,2.00
2022-08-23T11:49:32.452Z,4.69
2022-08-23T11:50:59.514Z,5.56
2022-08-23T11:52:22.920Z,4.94
2022-08-23T11:53:46.472Z,5.44
2022-08-23T11:55:08.287Z,4.25
2022-08-23T11:56:30.592Z,5.56
2022-08-23T11:57:49.534Z,2.00
2022-08-23T11:59:16.004Z,4.94
2022-08-23T12:00:29.238Z,4.37
2022-08-23T12:01:41.221Z,3.06
2022-08-23T12:02:55.437Z,5.25
2022-08-23T12:04:06.225Z,3.50
2022-08-23T12:05:20.250Z,4.44
2022-08-23T12:06:50.910Z,5.00
2022-08-23T12:08:01.376Z,3.81
2022-08-23T12:09:26.937Z,5.37
2022-08-23T12:10:45.926Z,5.06
2022-08-23T12:11:55.713Z,4.00
2022-08-23T12:13:22.678Z,7.00
2022-08-23T12:14:44.698Z,3.62
2022-08-23T12:16:17.831Z,4.69
2022-08-23T12:17:25.029Z,4.50
2022-08-23T12:18:30.599Z,4.12
2022-08-23T12:19:40.382Z,7.50
2022-08-23T12:20:48.605Z,3.87
2022-08-23T12:21:54.386Z,4.00
2022-08-23T12:23:04.115Z,9.88
2022-08-23T12:24:26.304Z,11.25
2022-08-23T12:25:31.136Z,8.56
2022-08-23T12:26:58.643Z,5.37
2022-08-23T12:28:36.144Z,6.37
2022-08-23T12:30:01.332Z,6.94
2022-08-23T12:31:13.632Z,6.94
2022-08-23T12:32:25.757Z,5.56
2022-08-23T12:33:49.041Z,4.69
2022-08-23T12:35:21.507Z,6.94
2022-08-23T12:36:30.342Z,5.06
2022-08-23T12:38:00.063Z,7.19
2022-08-23T12:39:10.300Z,7.50
2022-08-23T12:40:18.270Z,6.06
2022-08-23T12:41:25.378Z,6.56
2022-08-23T12:42:38.222Z,7.62
2022-08-23T12:43:45.256Z,8.94
2022-08-23T12:44:54.926Z,13.94
2022-08-23T12:46:02.243Z,9.56
2022-08-23T12:47:18.220Z,4.31
2022-08-23T12:48:26.647Z,3.62
2022-08-23T12:49:33.607Z,10.63
2022-08-23T12:50:40.819Z,8.13
2022-08-23T12:51:53.101Z,5.25
2022-08-23T12:53:00.531Z,7.75
2022-08-23T12:54:16.232Z,5.12
2022-08-23T12:55:20.649Z,5.37
2022-08-23T12:56:32.570Z,4.31
2022-08-23T12:57:42.163Z,5.75
2022-08-23T12:58:48.547Z,6.00
2022-08-23T13:00:17.213Z,8.56
2022-08-23T13:01:29.819Z,7.37
2022-08-23T13:02:34.718Z,7.44
2022-08-23T13:03:42.208Z,10.31
2022-08-23T13:04:46.810Z,8.50
2022-08-23T13:06:03.211Z,6.50
2022-08-23T13:07:10.326Z,4.50
2022-08-23T13:08:21.219Z,8.75
2022-08-23T13:09:35.554Z,6.12
2022-08-23T13:10:44.626Z,5.62
2022-08-23T13:11:49.348Z,3.19
2022-08-23T13:12:53.872Z,5.00
2022-08-23T13:13:58.792Z,5.19
2022-08-23T13:15:02.931Z,6.69
2022-08-23T13:16:27.291Z,6.75
2022-08-23T13:17:37.075Z,6.50
2022-08-23T13:18:43.944Z,6.12
2022-08-23T13:19:51.320Z,6.62
2022-08-23T13:21:15.053Z,6.31
2022-08-23T13:22:24.829Z,6.75
2022-08-23T13:23:33.305Z,7.62
2022-08-23T13:24:47.805Z,2.00
2022-08-23T13:26:02.529Z,6.87
2022-08-23T13:27:18.262Z,5.62
2022-08-23T13:28:31.187Z,7.00
2022-08-23T13:29:36.861Z,5.75
2022-08-23T13:30:42.580Z,7.87
2022-08-23T13:32:02.664Z,6.75
2022-08-23T13:33:11.646Z,7.25
2022-08-23T13:34:37.622Z,7.12
2022-08-23T13:35:49.764Z,7.00
2022-08-23T13:36:56.168Z,5.25
2022-08-23T13:38:03.840Z,5.37
2022-08-23T13:39:09.276Z,5.06
2022-08-23T13:40:18.200Z,5.87
2022-08-23T13:41:31.203Z,5.44
2022-08-23T13:42:46.895Z,6.50
2022-08-23T13:43:55.226Z,5.44
2022-08-23T13:45:00.796Z,5.75
2022-08-23T13:46:16.984Z,7.31
2022-08-23T13:47:23.890Z,6.06
2022-08-23T13:48:33.929Z,11.12
2022-08-23T13:49:38.308Z,6.37
2022-08-23T13:50:43.947Z,5.12
2022-08-23T13:52:33.300Z,8.19
2022-08-23T13:53:14.695Z,7.25
2022-08-23T13:54:16.683Z,7.31
2022-08-23T13:55:21.384Z,3.56
2022-08-23T13:56:28.379Z,6.50
2022-08-23T13:57:34.057Z,8.50
2022-08-23T13:58:38.134Z,7.00
2022-08-23T13:59:54.812Z,10.38
2022-08-23T14:01:10.681Z,5.69
2022-08-23T14:02:22.201Z,12.44
2022-08-23T14:03:23.837Z,8.50
2022-08-23T14:04:29.396Z,7.37
2022-08-23T14:05:33.836Z,7.12
2022-08-23T14:06:39.480Z,5.94
2022-08-23T14:07:49.104Z,5.56
2022-08-23T14:08:53.656Z,7.00
2022-08-23T14:10:00.493Z,8.38
2022-08-23T14:11:08.620Z,7.81
2022-08-23T14:12:18.721Z,6.94
2022-08-23T14:13:25.159Z,7.00
2022-08-23T14:14:31.721Z,7.37
2022-08-23T14:16:42.578Z,6.87
2022-08-23T14:17:52.510Z,6.69
2022-08-23T14:21:08.468Z,10.38
2022-08-23T14:22:13.253Z,9.81
2022-08-23T14:23:17.699Z,5.81
2022-08-23T14:24:26.920Z,8.38
2022-08-23T14:25:34.294Z,6.56
2022-08-23T14:26:51.623Z,7.94
2022-08-23T14:29:00.022Z,6.94
2022-08-23T14:30:23.210Z,5.87
2022-08-23T14:31:29.206Z,8.31
2022-08-23T14:32:33.173Z,7.00
2022-08-23T14:33:38.338Z,7.19
2022-08-23T14:34:43.623Z,7.25
2022-08-23T14:35:50.625Z,9.13
2022-08-23T14:38:03.965Z,11.81
2022-08-23T14:39:07.071Z,9.25
2022-08-23T14:40:13.105Z,8.50
2022-08-23T14:42:39.170Z,6.56
2022-08-23T14:43:47.142Z,4.94
2022-08-23T14:44:51.537Z,6.87
2022-08-23T14:45:59.129Z,8.94
2022-08-23T14:47:03.627Z,7.69
2022-08-23T14:48:07.951Z,10.19
2022-08-23T14:49:13.671Z,9.38
2022-08-23T14:50:19.099Z,7.50
2022-08-23T14:51:35.234Z,9.00
2022-08-23T14:52:42.659Z,11.69
2022-08-23T14:53:47.864Z,8.25
2022-08-23T14:54:53.791Z,9.38
2022-08-23T14:56:20.629Z,9.69
2022-08-23T14:57:07.658Z,7.44
2022-08-23T14:58:14.547Z,10.19
2022-08-23T14:59:23.971Z,9.69